Time;durP1;ratioP1;P1;durP2;ratioP2;P2;SDS_P1;SDS_P2;PMS_P1;PMS_P2;Temp;Humidity;BMP_temperature;BMP_pressure;BME280_temperature;BME280_humidity;BME280_pressure;Samples;Min_cycle;Max_cycle;Signal;HPM_P1;HPM_P2
2022/08/13 00:00:28;;;;;;;;;;;;;;;-147.53;100.00;57128.34;10205031;28;20457;-87
2022/08/13 00:05:33;;;;;;;6.53;2.85;;;;;;;-147.53;100.00;57128.34;10210880;28;19930;-88
2022/08/13 00:10:44;;;;;;;7.65;2.88;;;;;;;-147.53;100.00;57128.34;10203319;29;20053;-88
2022/08/13 00:15:47;;;;;;;8.00;3.03;;;;;;;-147.53;100.00;57128.34;10212178;28;20576;-87
2022/08/13 00:20:58;;;;;;;7.60;3.03;;;;;;;-147.53;100.00;57128.34;10191245;28;20549;-89
2022/08/13 00:26:01;;;;;;;9.00;3.00;;;;;;;-147.53;100.00;57128.34;10220096;28;20063;-87
2022/08/13 00:31:05;;;;;;;5.70;2.75;;;;;;;-147.53;100.00;57128.34;10194466;29;20138;-88
2022/08/13 00:36:09;;;;;;;5.97;2.65;;;;;;;-147.53;100.00;57128.34;10185522;28;20044;-87
2022/08/13 00:48:41;;;;;;;10.30;2.90;;;;;;;-147.53;100.00;57128.34;10213573;28;20134;-88
2022/08/13 00:52:19;;;;;;;7.18;3.22;;;;;;;-147.53;100.00;57128.34;10205200;29;20533;-87
2022/08/13 00:57:21;;;;;;;6.90;2.70;;;;;;;-147.53;100.00;57128.34;10202663;28;20047;-88
2022/08/13 01:02:26;;;;;;;5.53;2.90;;;;;;;-147.53;100.00;57128.34;10204469;29;20051;-86
2022/08/13 01:07:36;;;;;;;8.70;3.25;;;;;;;-147.53;100.00;57128.34;10216973;28;20039;-87
2022/08/13 01:12:58;;;;;;;5.70;2.75;;;;;;;-147.53;100.00;57128.34;10207385;29;20513;-87
2022/08/13 01:18:01;;;;;;;5.90;2.65;;;;;;;-147.53;100.00;57128.34;10201532;29;20708;-87
2022/08/13 01:23:09;;;;;;;9.15;3.30;;;;;;;-147.53;100.00;57128.34;10219498;29;20051;-87
2022/08/13 01:28:16;;;;;;;5.18;2.83;;;;;;;-147.53;100.00;57128.34;10205518;29;20424;-88
2022/08/13 01:33:18;;;;;;;7.45;2.97;;;;;;;-147.53;100.00;57128.34;10203292;29;20043;-86
2022/08/13 01:38:26;;;;;;;6.20;2.95;;;;;;;-147.53;100.00;57128.34;10223307;28;20055;-88
2022/08/13 01:43:30;;;;;;;7.47;2.67;;;;;;;-147.53;100.00;57128.34;10209062;28;20122;-88
2022/08/13 01:54:05;;;;;;;7.00;3.20;;;;;;;-147.53;100.00;57128.34;10225330;28;20044;-88
2022/08/13 01:59:47;;;;;;;5.55;2.92;;;;;;;-147.53;100.00;57128.34;10203966;29;20047;-87
2022/08/13 02:05:05;;;;;;;8.50;3.03;;;;;;;-147.53;100.00;57128.34;10196899;28;20478;-87
2022/08/13 02:10:13;;;;;;;5.82;2.97;;;;;;;-147.53;100.00;57128.34;10201583;29;20107;-87
2022/08/13 02:15:16;;;;;;;8.07;3.13;;;;;;;-147.53;100.00;57128.34;10222188;28;20061;-87
2022/08/13 02:20:17;;;;;;;5.70;2.75;;;;;;;-147.53;100.00;57128.34;10186512;29;20047;-88
2022/08/13 02:25:22;;;;;;;6.18;2.88;;;;;;;-147.53;100.00;57128.34;10219662;28;20043;-88
2022/08/13 02:30:27;;;;;;;7.05;3.17;;;;;;;-147.53;100.00;57128.34;10218425;28;20035;-87
2022/08/13 02:35:34;;;;;;;7.80;3.10;;;;;;;-147.53;100.00;57128.34;10224278;23;20175;-87
2022/08/13 02:46:17;;;;;;;9.48;3.88;;;;;;;-147.53;100.00;57128.34;10250810;28;20758;-87
2022/08/13 02:51:23;;;;;;;10.13;4.20;;;;;;;-147.53;100.00;57128.34;10233843;28;20044;-87
2022/08/13 02:56:44;;;;;;;5.75;3.25;;;;;;;-147.53;100.00;57128.34;10220700;28;20040;-87
2022/08/13 03:01:47;;;;;;;9.00;3.10;;;;;;;-147.53;100.00;57128.34;10229496;28;20541;-86
2022/08/13 03:06:56;;;;;;;9.30;3.65;;;;;;;-147.53;100.00;57128.34;10231094;28;20047;-87
2022/08/13 03:12:01;;;;;;;7.40;3.25;;;;;;;-147.53;100.00;57128.34;10232297;28;20047;-89
2022/08/13 03:17:03;;;;;;;8.02;3.88;;;;;;;-147.53;100.00;57128.34;10234865;28;20051;-89
2022/08/13 03:22:09;;;;;;;9.85;3.38;;;;;;;-147.53;100.00;57128.34;10235878;28;20066;-87
2022/08/13 03:27:11;;;;;;;6.32;3.22;;;;;;;-147.53;100.00;57128.34;10225436;28;20058;-85
2022/08/13 03:32:17;;;;;;;13.05;3.40;;;;;;;-147.53;100.00;57128.34;10246341;28;20130;-87
2022/08/13 03:37:34;;;;;;;8.13;3.13;;;;;;;-147.53;100.00;57128.34;10243844;28;20043;-88
2022/08/13 03:42:39;;;;;;;6.60;3.03;;;;;;;-147.53;100.00;57128.34;10226399;28;20138;-86
2022/08/13 03:47:55;;;;;;;7.60;3.50;;;;;;;-147.53;100.00;57128.34;10248907;28;20102;-87
2022/08/13 03:53:04;;;;;;;8.05;3.60;;;;;;;-147.53;100.00;57128.34;10242218;28;20039;-87
2022/08/13 03:58:07;;;;;;;6.32;3.35;;;;;;;-147.53;100.00;57128.34;10235731;28;20043;-87
2022/08/13 04:03:28;;;;;;;8.23;3.47;;;;;;;-147.53;100.00;57128.34;10225616;28;20109;-86
2022/08/13 04:08:34;;;;;;;11.02;3.70;;;;;;;-147.53;100.00;57128.34;10229230;28;20134;-88
2022/08/13 04:13:37;;;;;;;8.70;4.55;;;;;;;-147.53;100.00;57128.34;10249576;28;20207;-88
2022/08/13 04:19:00;;;;;;;10.13;3.78;;;;;;;-147.53;100.00;57128.34;10252262;28;20445;-87
2022/08/13 04:24:05;;;;;;;9.20;3.78;;;;;;;-147.53;100.00;57128.34;10227279;28;20118;-89
2022/08/13 04:29:16;;;;;;;8.18;4.20;;;;;;;-147.53;100.00;57128.34;10244369;28;20043;-87
2022/08/13 04:34:26;;;;;;;12.15;4.20;;;;;;;-147.53;100.00;57128.34;10241431;28;20540;-87
2022/08/13 04:39:40;;;;;;;7.85;3.80;;;;;;;-147.53;100.00;57128.34;10223468;28;20591;-87
2022/08/13 04:45:02;;;;;;;7.68;3.90;;;;;;;-147.53;100.00;57128.34;10209098;28;20068;-87
2022/08/13 04:50:05;;;;;;;9.30;3.50;;;;;;;-147.53;100.00;57128.34;10246112;28;20069;-87
2022/08/13 04:55:12;;;;;;;8.95;4.05;;;;;;;-147.53;100.00;57128.34;10242660;28;20065;-87
2022/08/13 05:00:16;;;;;;;8.32;3.72;;;;;;;-147.53;100.00;57128.34;10235521;28;20126;-88
2022/08/13 05:05:29;;;;;;;6.40;3.55;;;;;;;-147.53;100.00;57128.34;10231382;28;20416;-88
2022/08/13 05:10:31;;;;;;;9.02;3.85;;;;;;;-147.53;100.00;57128.34;10246691;28;20055;-88
2022/08/13 05:15:39;;;;;;;7.85;3.50;;;;;;;-147.53;100.00;57128.34;10247897;28;20057;-89
2022/08/13 05:20:48;;;;;;;6.78;3.58;;;;;;;-147.53;100.00;57128.34;10235944;28;20082;-91
2022/08/13 05:25:53;;;;;;;14.15;5.00;;;;;;;-147.53;100.00;57128.34;10234045;28;20062;-89
2022/08/13 05:31:19;;;;;;;10.95;4.55;;;;;;;-147.53;100.00;57128.34;10231948;28;20133;-89
2022/08/13 05:36:28;;;;;;;8.73;4.30;;;;;;;-147.53;100.00;57128.34;10262980;28;20642;-88
2022/08/13 05:41:49;;;;;;;10.65;4.63;;;;;;;-147.53;100.00;57128.34;10252368;28;20071;-89
2022/08/13 05:47:09;;;;;;;12.15;4.35;;;;;;;-147.53;100.00;57128.34;10242874;28;20135;-89
2022/08/13 05:52:16;;;;;;;13.93;4.20;;;;;;;-147.53;100.00;57128.34;10228499;28;20584;-89
2022/08/13 05:57:40;;;;;;;7.93;3.28;;;;;;;-147.53;100.00;57128.34;10233503;28;20043;-89
2022/08/13 06:08:07;;;;;;;6.80;3.20;;;;;;;-147.53;100.00;57128.34;10256090;28;20043;-90
2022/08/13 06:13:30;;;;;;;6.60;3.38;;;;;;;-147.53;100.00;57128.34;10260212;28;20043;-87
2022/08/13 06:18:52;;;;;;;6.40;3.13;;;;;;;-147.53;100.00;57128.34;10249008;28;20043;-89
2022/08/13 06:24:07;;;;;;;10.95;3.50;;;;;;;-147.53;100.00;57128.34;10259545;28;20091;-89
2022/08/13 06:29:15;;;;;;;8.38;3.38;;;;;;;-147.53;100.00;57128.34;10255674;28;20059;-89
2022/08/13 06:34:18;;;;;;;6.63;3.45;;;;;;;-147.53;100.00;57128.34;10234700;28;20039;-90
2022/08/13 06:39:36;;;;;;;7.10;3.30;;;;;;;-147.53;100.00;57128.34;10247558;28;20102;-87
2022/08/13 06:44:40;;;;;;;8.40;3.00;;;;;;;-147.53;100.00;57128.34;10243632;28;20047;-85
2022/08/13 06:49:43;;;;;;;7.57;2.78;;;;;;;-147.53;100.00;57128.34;10236848;28;20051;-89
2022/08/13 06:55:01;;;;;;;12.05;3.10;;;;;;;-147.53;100.00;57128.34;10246863;28;20071;-91
2022/08/13 07:00:25;;;;;;;5.95;2.58;;;;;;;-147.53;100.00;57128.34;10253339;28;20051;-89
2022/08/13 07:05:40;;;;;;;5.32;2.50;;;;;;;-147.53;100.00;57128.34;10276063;28;20102;-92
2022/08/13 07:10:46;;;;;;;5.30;2.60;;;;;;;-147.53;100.00;57128.34;10254909;28;20575;-92
2022/08/13 07:15:51;;;;;;;8.70;2.55;;;;;;;-147.53;100.00;57128.34;10269658;28;20054;-92
2022/08/13 07:21:02;;;;;;;4.97;2.28;;;;;;;-147.53;100.00;57128.34;10250508;28;20047;-94
2022/08/13 07:26:36;;;;;;;9.55;2.08;;;;;;;-147.53;100.00;57128.34;10273640;28;20050;-93
2022/08/13 07:32:17;;;;;;;6.68;2.65;;;;;;;-147.53;100.00;57128.34;10264533;28;20528;-92
2022/08/13 07:44:31;;;;;;;6.93;2.25;;;;;;;-147.53;100.00;57128.34;10248168;28;20134;-92
2022/08/13 07:50:21;;;;;;;7.18;2.13;;;;;;;-147.53;100.00;57128.34;10269052;28;20121;-92
2022/08/13 08:03:01;;;;;;;9.98;1.95;;;;;;;-147.53;100.00;57128.34;10325392;28;20035;-91
2022/08/13 08:09:24;;;;;;;3.75;1.70;;;;;;;-147.53;100.00;57128.34;10268592;28;20039;-92
2022/08/13 08:20:21;;;;;;;4.05;1.48;;;;;;;-147.53;100.00;57128.34;10116799;29;20139;-87
2022/08/13 08:25:39;;;;;;;1.73;1.02;;;;;;;-147.53;100.00;57128.34;10106594;29;20135;-86
2022/08/13 08:31:06;;;;;;;4.25;1.83;;;;;;;-147.53;100.00;57128.34;10118585;29;20054;-88
2022/08/13 08:36:28;;;;;;;5.35;1.67;;;;;;;-147.53;100.00;57128.34;10097493;29;20667;-87
2022/08/13 08:47:01;;;;;;;4.35;1.88;;;;;;;-147.53;100.00;57128.34;10114394;29;20123;-87
2022/08/13 08:52:11;;;;;;;11.20;1.50;;;;;;;-147.53;100.00;57128.34;10101963;29;20052;-86
2022/08/13 08:57:13;;;;;;;7.78;2.30;;;;;;;-147.53;100.00;57128.34;10117167;29;20068;-87
2022/08/13 09:02:18;;;;;;;3.80;1.30;;;;;;;-147.53;100.00;57128.34;10107369;29;20083;-86
2022/08/13 09:07:23;;;;;;;4.05;1.30;;;;;;;-147.53;100.00;57128.34;10114900;29;20053;-87
2022/08/13 09:12:26;;;;;;;3.90;1.20;;;;;;;-147.53;100.00;57128.34;10120355;29;20072;-86
2022/08/13 09:17:30;;;;;;;5.15;1.30;;;;;;;-147.53;100.00;57128.34;10120896;29;20048;-86
2022/08/13 09:22:44;;;;;;;7.20;1.35;;;;;;;-147.53;100.00;57128.34;10107496;29;20410;-86
2022/08/13 09:27:56;;;;;;;4.57;1.27;;;;;;;-147.53;100.00;57128.34;10100385;29;20590;-86
2022/08/13 09:33:04;;;;;;;3.30;1.15;;;;;;;-147.53;100.00;57128.34;10123174;29;20057;-86
2022/08/13 09:38:09;;;;;;;2.70;1.40;;;;;;;-147.53;100.00;57128.34;10121236;29;20063;-85
2022/08/13 09:43:29;;;;;;;3.92;1.40;;;;;;;-147.53;100.00;57128.34;10122185;29;20472;-86
2022/08/13 09:48:51;;;;;;;5.07;1.60;;;;;;;-147.53;100.00;57128.34;10117826;29;20049;-84
2022/08/13 09:53:56;;;;;;;4.03;1.30;;;;;;;-147.53;100.00;57128.34;10103383;29;20037;-86
2022/08/13 09:58:58;;;;;;;6.95;1.50;;;;;;;-147.53;100.00;57128.34;10120050;29;20104;-86
2022/08/13 10:04:00;;;;;;;6.40;1.55;;;;;;;-147.53;100.00;57128.34;10121371;29;20041;-85
2022/08/13 10:09:01;;;;;;;3.35;1.50;;;;;;;-147.53;100.00;57128.34;10118190;29;20076;-83
2022/08/13 10:14:06;;;;;;;5.35;1.40;;;;;;;-147.53;100.00;57128.34;10106171;29;20053;-85
2022/08/13 10:19:08;;;;;;;5.25;1.80;;;;;;;-147.53;100.00;57128.34;10082160;29;20073;-85
2022/08/13 10:24:13;;;;;;;4.97;1.52;;;;;;;-147.53;100.00;57128.34;10073293;29;20569;-86
2022/08/13 10:29:15;;;;;;;3.08;1.55;;;;;;;-147.53;100.00;57128.34;10080357;29;20124;-86
2022/08/13 10:34:42;;;;;;;5.22;1.65;;;;;;;-147.53;100.00;57128.34;10059967;29;20425;-86
2022/08/13 10:39:58;;;;;;;5.93;1.45;;;;;;;-147.53;100.00;57128.34;10074664;29;20060;-86
2022/08/13 10:45:00;;;;;;;4.07;1.63;;;;;;;-147.53;100.00;57128.34;10068348;29;20553;-87
2022/08/13 10:50:03;;;;;;;5.20;1.67;;;;;;;-147.53;100.00;57128.34;10074349;29;20785;-88
2022/08/13 10:55:08;;;;;;;4.63;1.80;;;;;;;-147.53;100.00;57128.34;10068178;29;20033;-86
2022/08/13 11:00:14;;;;;;;3.15;1.77;;;;;;;-147.53;100.00;57128.34;10046475;29;20046;-85
2022/08/13 11:05:23;;;;;;;6.47;1.88;;;;;;;-147.53;100.00;57128.34;10073809;29;20717;-86
2022/08/13 11:10:25;;;;;;;3.35;1.60;;;;;;;-147.53;100.00;57128.34;10061942;29;20128;-86
2022/08/13 11:22:06;;;;;;;13.25;2.10;;;;;;;-147.53;100.00;57128.34;10116840;29;20040;-86
2022/08/13 11:27:22;;;;;;;4.00;1.88;;;;;;;-147.53;100.00;57128.34;10125894;29;20503;-88
2022/08/13 11:32:31;;;;;;;7.07;1.90;;;;;;;-147.53;100.00;57128.34;10073040;29;20279;-88
2022/08/13 11:37:35;;;;;;;3.25;1.95;;;;;;;-147.53;100.00;57128.34;10089935;29;20060;-87
2022/08/13 11:42:42;;;;;;;3.90;1.70;;;;;;;-147.53;100.00;57128.34;10119062;29;20072;-89
2022/08/13 11:48:08;;;;;;;9.18;2.03;;;;;;;-147.53;100.00;57128.34;10088846;29;20044;-88
2022/08/13 11:53:13;;;;;;;3.65;1.92;;;;;;;-147.53;100.00;57128.34;10101775;29;20571;-89
2022/08/13 11:58:21;;;;;;;4.63;1.90;;;;;;;-147.53;100.00;57128.34;10100791;29;20055;-87
2022/08/13 12:03:43;;;;;;;3.72;1.83;;;;;;;-147.53;100.00;57128.34;10111910;29;20052;-86
2022/08/13 12:09:04;;;;;;;4.30;1.83;;;;;;;-147.53;100.00;57128.34;10108979;29;20171;-86
2022/08/13 12:14:23;;;;;;;9.55;2.10;;;;;;;-147.53;100.00;57128.34;10099189;29;20064;-88
2022/08/13 12:19:36;;;;;;;4.22;2.00;;;;;;;-147.53;100.00;57128.34;10111245;29;20112;-86
2022/08/13 12:24:38;;;;;;;6.80;1.90;;;;;;;-147.53;100.00;57128.34;10103420;29;20845;-85
2022/08/13 12:30:04;;;;;;;8.02;1.88;;;;;;;-147.53;100.00;57128.34;10112150;29;20065;-88
2022/08/13 12:35:09;;;;;;;5.65;1.88;;;;;;;-147.53;100.00;57128.34;10105143;29;20408;-87
2022/08/13 12:40:17;;;;;;;5.40;2.00;;;;;;;-147.53;100.00;57128.34;10104011;29;20044;-81
2022/08/13 12:45:20;;;;;;;7.10;2.00;;;;;;;-147.53;100.00;57128.34;10122853;29;20041;-85
2022/08/13 12:50:43;;;;;;;4.28;2.20;;;;;;;-147.53;100.00;57128.34;10102325;29;20044;-84
2022/08/13 12:55:46;;;;;;;3.28;1.80;;;;;;;-147.53;100.00;57128.34;10110890;29;20131;-87
2022/08/13 13:00:54;;;;;;;;;;;;;;;-147.53;100.00;57128.34;10082432;29;20053;-87
2022/08/13 13:06:04;;;;;;;5.32;2.10;;;;;;;-147.53;100.00;57128.34;10099195;29;19934;-87
2022/08/13 13:11:08;;;;;;;4.78;1.90;;;;;;;-147.53;100.00;57128.34;10105447;29;20680;-87
2022/08/13 13:16:14;;;;;;;4.17;2.30;;;;;;;-147.53;100.00;57128.34;10102139;29;20040;-87
2022/08/13 13:21:34;;;;;;;6.45;2.45;;;;;;;-147.53;100.00;57128.34;10118647;29;20131;-85
2022/08/13 13:26:40;;;;;;;5.88;2.20;;;;;;;-147.53;100.00;57128.34;10099125;29;20593;-85
2022/08/13 13:31:45;;;;;;;7.75;3.08;;;;;;;-147.53;100.00;57128.34;10099775;29;20059;-86
2022/08/13 13:37:07;;;;;;;6.30;2.10;;;;;;;-147.53;100.00;57128.34;10120732;29;20041;-85
2022/08/13 13:42:09;;;;;;;9.32;2.33;;;;;;;-147.53;100.00;57128.34;10091808;29;20080;-86
2022/08/13 13:47:19;;;;;;;5.43;2.20;;;;;;;-147.53;100.00;57128.34;10104817;29;20036;-85
2022/08/13 13:52:21;;;;;;;3.97;2.38;;;;;;;-147.53;100.00;57128.34;10128517;29;20056;-83
2022/08/13 13:57:24;;;;;;;5.40;2.33;;;;;;;-147.53;100.00;57128.34;10109688;29;20075;-84
2022/08/13 14:02:26;;;;;;;5.15;2.40;;;;;;;-147.53;100.00;57128.34;10125246;29;20096;-83
2022/08/13 14:07:40;;;;;;;6.43;2.47;;;;;;;-147.53;100.00;57128.34;10097638;29;20182;-84
2022/08/13 14:12:51;;;;;;;7.47;2.72;;;;;;;-147.53;100.00;57128.34;10131539;29;20059;-87
2022/08/13 14:18:15;;;;;;;8.40;2.70;;;;;;;-147.53;100.00;57128.34;10117701;29;20419;-84
2022/08/13 14:23:28;;;;;;;6.82;2.30;;;;;;;-147.53;100.00;57128.34;10118420;29;20055;-84
2022/08/13 14:28:44;;;;;;;5.35;2.53;;;;;;;-147.53;100.00;57128.34;10118771;29;20105;-83
2022/08/13 14:33:48;;;;;;;4.60;2.40;;;;;;;-147.53;100.00;57128.34;10125224;29;20731;-77
2022/08/13 14:39:03;;;;;;;5.90;3.60;;;;;;;-147.53;100.00;57128.34;10124761;29;20056;-81
2022/08/13 14:44:12;;;;;;;4.70;2.60;;;;;;;-147.53;100.00;57128.34;10114374;29;20060;-79
2022/08/13 14:49:34;;;;;;;5.80;2.47;;;;;;;-147.53;100.00;57128.34;10115580;29;20469;-75
2022/08/13 14:55:00;;;;;;;4.47;2.47;;;;;;;-147.53;100.00;57128.34;10096888;29;20051;-84
2022/08/13 15:00:10;;;;;;;8.20;3.13;;;;;;;-147.53;100.00;57128.34;10084934;29;20406;-83
2022/08/13 15:05:28;;;;;;;6.13;2.72;;;;;;;-147.53;100.00;57128.34;10102858;29;20048;-86
2022/08/13 15:10:52;;;;;;;6.85;2.85;;;;;;;-147.53;100.00;57128.34;10084552;29;20060;-87
2022/08/13 15:16:07;;;;;;;8.23;2.60;;;;;;;-147.53;100.00;57128.34;10107664;29;20048;-86
2022/08/13 15:21:15;;;;;;;10.95;2.83;;;;;;;-147.53;100.00;57128.34;10096053;29;20105;-84
2022/08/13 15:26:59;;;;;;;5.55;2.60;;;;;;;-147.53;100.00;57128.34;10096209;29;20113;-86
2022/08/13 15:32:04;;;;;;;5.75;2.92;;;;;;;-147.53;100.00;57128.34;10089881;29;20057;-87
2022/08/13 15:37:10;;;;;;;6.68;2.80;;;;;;;-147.53;100.00;57128.34;10095862;29;20064;-84
2022/08/13 15:42:15;;;;;;;5.95;3.00;;;;;;;-147.53;100.00;57128.34;10108127;29;20483;-88
2022/08/13 15:47:18;;;;;;;8.98;3.95;;;;;;;-147.53;100.00;57128.34;10097243;29;20183;-88
2022/08/13 15:52:23;;;;;;;8.82;3.55;;;;;;;-147.53;100.00;57128.34;10100691;29;20127;-87
2022/08/13 15:57:26;;;;;;;6.93;3.42;;;;;;;-147.53;100.00;57128.34;10105616;29;20113;-88
2022/08/13 16:02:33;;;;;;;7.03;3.30;;;;;;;-147.53;100.00;57128.34;10097774;29;20063;-87
2022/08/13 16:07:54;;;;;;;6.60;3.42;;;;;;;-147.53;100.00;57128.34;10078091;29;20104;-88
2022/08/13 16:13:03;;;;;;;8.73;4.65;;;;;;;-147.53;100.00;57128.34;10107104;29;20052;-87
2022/08/13 16:18:07;;;;;;;7.93;3.42;;;;;;;-147.53;100.00;57128.34;10101442;29;20470;-88
2022/08/13 16:23:17;;;;;;;6.82;3.47;;;;;;;-147.53;100.00;57128.34;10110033;29;20089;-87
2022/08/13 16:28:22;;;;;;;8.30;4.03;;;;;;;-147.53;100.00;57128.34;10091685;29;20449;-87
2022/08/13 16:33:24;;;;;;;7.95;4.18;;;;;;;-147.53;100.00;57128.34;10095716;29;20041;-87
2022/08/13 16:38:31;;;;;;;;;;;;;;;-147.53;100.00;57128.34;10105079;29;20414;-86
2022/08/13 16:43:33;;;;;;;9.27;3.80;;;;;;;-147.53;100.00;57128.34;10099481;29;20035;-88
2022/08/13 16:48:56;;;;;;;6.15;3.83;;;;;;;-147.53;100.00;57128.34;10089208;29;20048;-78
2022/08/13 16:53:59;;;;;;;7.70;3.90;;;;;;;-147.53;100.00;57128.34;10112909;29;20064;-86
2022/08/13 16:59:21;;;;;;;8.70;3.70;;;;;;;-147.53;100.00;57128.34;10109425;29;20044;-87
2022/08/13 17:10:05;;;;;;;10.88;5.43;;;;;;;-147.53;100.00;57128.34;10111963;29;20052;-86
2022/08/13 17:15:07;;;;;;;10.77;5.43;;;;;;;-147.53;100.00;57128.34;10116751;29;20127;-85
2022/08/13 17:20:12;;;;;;;8.70;5.32;;;;;;;-147.53;100.00;57128.34;10105222;29;20045;-86
2022/08/13 17:25:13;;;;;;;11.13;4.78;;;;;;;-147.53;100.00;57128.34;10115788;29;20080;-85
2022/08/13 17:30:15;;;;;;;15.85;4.20;;;;;;;-147.53;100.00;57128.34;10109011;29;20133;-87
2022/08/13 17:35:17;;;;;;;7.85;4.25;;;;;;;-147.53;100.00;57128.34;10091088;29;20076;-87
2022/08/13 17:40:29;;;;;;;6.25;3.92;;;;;;;-147.53;100.00;57128.34;10093627;29;20041;-79
2022/08/13 17:45:37;;;;;;;8.38;4.95;;;;;;;-147.53;100.00;57128.34;10115344;29;20115;-85
2022/08/13 17:50:44;;;;;;;12.13;6.18;;;;;;;-147.53;100.00;57128.34;10103951;29;20052;-85
2022/08/13 17:55:53;;;;;;;9.55;4.78;;;;;;;-147.53;100.00;57128.34;10120527;29;20071;-85
2022/08/13 18:00:58;;;;;;;7.35;4.10;;;;;;;-147.53;100.00;57128.34;10118020;29;20055;-85
2022/08/13 18:06:02;;;;;;;6.60;3.92;;;;;;;-147.53;100.00;57128.34;10105594;29;20053;-79
2022/08/13 18:11:24;;;;;;;6.78;4.00;;;;;;;-147.53;100.00;57128.34;10120516;29;20080;-80
2022/08/13 18:16:26;;;;;;;11.30;4.55;;;;;;;-147.53;100.00;57128.34;10122659;29;20044;-79
2022/08/13 18:21:47;;;;;;;9.45;4.40;;;;;;;-147.53;100.00;57128.34;10090218;29;20429;-79
2022/08/13 18:26:53;;;;;;;8.20;4.20;;;;;;;-147.53;100.00;57128.34;10036188;29;20428;-85
2022/08/13 18:31:58;;;;;;;8.93;3.95;;;;;;;-147.53;100.00;57128.34;10061471;29;20059;-85
2022/08/13 18:37:00;;;;;;;10.40;4.00;;;;;;;-147.53;100.00;57128.34;10062341;29;20136;-85
2022/08/13 18:42:02;;;;;;;9.88;4.38;;;;;;;-147.53;100.00;57128.34;10055815;29;20610;-84
2022/08/13 18:47:10;;;;;;;9.40;4.75;;;;;;;-147.53;100.00;57128.34;10080861;29;20045;-84
2022/08/13 18:52:12;;;;;;;10.00;4.20;;;;;;;-147.53;100.00;57128.34;10063112;29;20119;-84
2022/08/13 18:57:36;;;;;;;8.70;4.20;;;;;;;-147.53;100.00;57128.34;10068467;29;20115;-84
2022/08/13 19:02:40;;;;;;;10.90;4.38;;;;;;;-147.53;100.00;57128.34;10082811;29;20108;-84
2022/08/13 19:07:46;;;;;;;12.00;4.55;;;;;;;-147.53;100.00;57128.34;10059467;29;20596;-85
2022/08/13 19:12:52;;;;;;;7.78;4.30;;;;;;;-147.53;100.00;57128.34;10066135;29;20049;-84
2022/08/13 19:18:09;;;;;;;8.40;4.03;;;;;;;-147.53;100.00;57128.34;10066916;29;20053;-84
2022/08/13 19:23:20;;;;;;;9.75;4.43;;;;;;;-147.53;100.00;57128.34;10090529;29;20051;-84
2022/08/13 19:28:24;;;;;;;9.80;3.80;;;;;;;-147.53;100.00;57128.34;10116718;29;20063;-84
2022/08/13 19:33:48;;;;;;;6.97;4.13;;;;;;;-147.53;100.00;57128.34;10115831;29;20173;-84
2022/08/13 19:38:49;;;;;;;12.05;4.25;;;;;;;-147.53;100.00;57128.34;10101569;29;20044;-84
2022/08/13 19:44:03;;;;;;;9.48;4.40;;;;;;;-147.53;100.00;57128.34;10096995;29;20986;-85
2022/08/13 19:49:08;;;;;;;7.22;4.28;;;;;;;-147.53;100.00;57128.34;10104253;29;20055;-85
2022/08/13 19:54:20;;;;;;;9.38;4.55;;;;;;;-147.53;100.00;57128.34;10115129;29;20052;-85
2022/08/13 19:59:22;;;;;;;9.05;4.75;;;;;;;-147.53;100.00;57128.34;10096428;29;20124;-85
2022/08/13 20:04:26;;;;;;;8.88;4.82;;;;;;;-147.53;100.00;57128.34;10110205;29;20492;-86
2022/08/13 20:09:39;;;;;;;9.55;4.82;;;;;;;-147.53;100.00;57128.34;10092881;29;20049;-85
2022/08/13 20:14:53;;;;;;;9.75;5.20;;;;;;;-147.53;100.00;57128.34;10113032;29;20060;-85
2022/08/13 20:22:01;;;;;;;13.45;4.70;;;;;;;24.46;53.42;101395.31;10499578;22;20646;-87
2022/08/13 20:27:13;;;;;;;10.15;5.00;;;;;;;24.30;54.24;101394.03;10440142;28;20041;-87
2022/08/13 20:32:45;;;;;;;10.18;5.60;;;;;;;24.18;54.66;101393.50;10429892;28;20045;-87
2022/08/13 20:38:02;;;;;;;9.77;5.10;;;;;;;24.01;55.29;101390.44;10380600;28;20052;-88
2022/08/13 20:43:06;;;;;;;9.63;5.22;;;;;;;23.87;55.87;101388.19;10332455;28;20065;-87
2022/08/13 20:48:15;;;;;;;13.70;4.93;;;;;;;23.72;56.24;101404.59;10354760;28;20138;-87
2022/08/13 20:53:38;;;;;;;9.65;5.00;;;;;;;23.54;57.04;101401.53;10350127;28;20463;-86
2022/08/13 20:58:57;;;;;;;8.90;4.93;;;;;;;23.42;57.55;101404.53;10355600;28;20041;-86
2022/08/13 21:04:46;;;;;;;12.60;5.80;;;;;;;23.28;58.06;101402.22;10351638;28;20132;-87
2022/08/13 21:09:48;;;;;;;13.48;6.63;;;;;;;23.15;58.78;101393.66;10335091;28;20567;-88
2022/08/13 21:14:58;;;;;;;11.40;6.43;;;;;;;22.94;59.92;101387.91;10350271;28;20046;-88
2022/08/13 21:20:00;;;;;;;22.20;10.60;;;;;;;22.78;60.59;101387.41;10362930;28;20295;-87
2022/08/13 21:25:05;;;;;;;11.88;6.13;;;;;;;22.65;61.39;101396.63;10368633;28;20351;-89
2022/08/13 21:30:12;;;;;;;11.48;6.32;;;;;;;22.50;62.10;101387.16;10360063;28;20074;-89
2022/08/13 21:35:17;;;;;;;9.90;5.82;;;;;;;22.35;62.89;101387.53;10359450;28;20046;-89
2022/08/13 21:40:20;;;;;;;10.88;5.30;;;;;;;22.25;63.24;101394.84;10358918;28;20082;-90
2022/08/13 21:45:31;;;;;;;14.45;6.53;;;;;;;22.21;63.46;101401.16;10355699;28;20054;-86
2022/08/13 21:50:37;;;;;;;10.35;6.35;;;;;;;22.20;63.36;101394.94;10343444;28;20073;-87
2022/08/13 21:55:49;;;;;;;11.70;5.60;;;;;;;22.28;63.27;101392.09;10365741;28;20046;-89
2022/08/13 22:00:52;;;;;;;12.25;5.30;;;;;;;22.21;63.40;101386.00;10357137;28;20047;-89
2022/08/13 22:05:54;;;;;;;8.63;5.57;;;;;;;22.18;63.26;101379.88;10356788;28;20050;-89
2022/08/13 22:11:18;;;;;;;9.55;5.90;;;;;;;22.14;63.38;101383.50;10343610;28;20137;-89
2022/08/13 22:16:23;;;;;;;8.48;5.15;;;;;;;22.02;63.65;101390.88;10357050;28;20057;-88
2022/08/13 22:21:31;;;;;;;10.40;6.05;;;;;;;21.95;63.98;101381.25;10332060;28;20046;-89
2022/08/13 22:26:37;;;;;;;9.35;5.78;;;;;;;21.88;64.19;101374.28;10333444;28;20130;-88
2022/08/13 22:31:39;;;;;;;9.45;5.40;;;;;;;21.82;64.07;101377.94;10337904;28;20042;-88
2022/08/13 22:36:44;;;;;;;12.30;6.15;;;;;;;21.76;64.58;101379.88;10338199;28;20039;-87
2022/08/13 22:41:47;;;;;;;13.00;5.75;;;;;;;21.69;64.98;101376.44;10349085;28;20038;-88
2022/08/13 22:46:50;;;;;;;11.85;6.20;;;;;;;21.66;65.40;101374.72;10342345;28;20066;-89
2022/08/13 22:51:56;;;;;;;13.52;6.50;;;;;;;21.65;65.39;101377.44;10344368;28;20677;-87
2022/08/13 22:56:59;;;;;;;16.58;6.05;;;;;;;21.66;65.74;101376.50;10339963;28;20057;-88
2022/08/13 23:02:08;;;;;;;9.68;6.40;;;;;;;21.66;65.94;101374.72;10342802;28;20054;-90
2022/08/13 23:07:19;;;;;;;10.45;6.28;;;;;;;21.64;66.18;101368.53;10342138;28;20101;-87
2022/08/13 23:12:26;;;;;;;12.23;5.53;;;;;;;21.62;66.05;101367.69;10335135;28;20134;-89
2022/08/13 23:17:33;;;;;;;9.65;6.13;;;;;;;21.58;66.25;101360.66;10331207;28;20097;-88
2022/08/13 23:22:45;;;;;;;12.38;6.18;;;;;;;21.52;66.31;101352.78;10354345;28;20069;-89
2022/08/13 23:27:51;;;;;;;15.18;6.72;;;;;;;21.45;66.42;101345.78;10339988;28;20038;-88
2022/08/13 23:33:09;;;;;;;10.68;6.63;;;;;;;21.40;66.74;101342.34;10338159;28;20118;-89
2022/08/13 23:38:12;;;;;;;13.50;6.73;;;;;;;21.31;67.04;101330.09;10352652;28;20042;-89
2022/08/13 23:43:20;;;;;;;10.70;6.75;;;;;;;21.23;67.38;101332.88;10349636;28;20076;-88
2022/08/13 23:48:23;;;;;;;11.27;6.25;;;;;;;21.17;67.78;101325.03;10339721;28;20050;-90
2022/08/13 23:53:28;;;;;;;11.55;6.70;;;;;;;21.12;67.90;101321.53;10335534;28;20060;-89
2022/08/13 23:58:33;;;;;;;10.80;6.53;;;;;;;21.03;67.99;101303.94;10334493;28;20104;-86
